Time;durP1;ratioP1;P1;durP2;ratioP2;P2;SDS_P1;SDS_P2;PMS_P1;PMS_P2;Temp;Humidity;BMP_temperature;BMP_pressure;BME280_temperature;BME280_humidity;BME280_pressure;Samples;Min_cycle;Max_cycle;Signal;HPM_P1;HPM_P2
2022/07/16 00:02:24;;;;;;;6.63;2.50;;;16.60;98.30;;;;;;5056509;28;20200;-81
2022/07/16 00:04:49;;;;;;;3.03;2.10;;;16.60;98.50;;;;;;5054797;28;20198;-81
2022/07/16 00:07:15;;;;;;;5.40;2.50;;;16.60;98.70;;;;;;5054987;28;20173;-82
2022/07/16 00:09:41;;;;;;;9.60;3.17;;;16.50;98.60;;;;;;5056151;28;20187;-82
2022/07/16 00:12:07;;;;;;;8.07;2.80;;;16.60;98.70;;;;;;5055345;28;20191;-81
2022/07/16 00:14:33;;;;;;;4.40;2.50;;;16.70;98.50;;;;;;5056113;28;20681;-80
2022/07/16 00:16:58;;;;;;;5.00;2.43;;;16.60;98.60;;;;;;5055986;28;20193;-81
2022/07/16 00:19:24;;;;;;;6.60;2.73;;;16.50;98.80;;;;;;5055047;28;20209;-81
2022/07/16 00:21:53;;;;;;;6.83;2.50;;;16.70;98.70;;;;;;5055135;28;20173;-81
2022/07/16 00:24:20;;;;;;;8.50;2.47;;;16.70;98.60;;;;;;5055403;28;20661;-81
2022/07/16 00:26:46;;;;;;;3.10;2.30;;;16.80;99.00;;;;;;5055021;28;20204;-81
2022/07/16 00:29:12;;;;;;;2.83;2.23;;;16.80;98.80;;;;;;5057789;28;20185;-81
2022/07/16 00:31:38;;;;;;;8.27;2.67;;;16.80;98.50;;;;;;5058949;28;20579;-81
2022/07/16 00:34:07;;;;;;;3.50;2.40;;;16.70;99.10;;;;;;5058711;28;20193;-82
2022/07/16 00:36:38;;;;;;;3.07;2.40;;;16.80;98.70;;;;;;5056828;28;20177;-82
2022/07/16 00:39:04;;;;;;;2.50;2.10;;;16.80;98.90;;;;;;5054694;28;20236;-81
2022/07/16 00:41:31;;;;;;;6.37;2.30;;;16.90;98.60;;;;;;5054389;28;20166;-82
2022/07/16 00:44:05;;;;;;;4.20;2.40;;;16.90;98.50;;;;;;5053747;28;20219;-82
2022/07/16 00:46:32;;;;;;;4.63;2.40;;;16.90;98.40;;;;;;5053543;28;20169;-81
2022/07/16 00:48:58;;;;;;;7.20;2.30;;;16.80;98.50;;;;;;5052991;28;20174;-81
2022/07/16 00:51:25;;;;;;;5.53;2.43;;;16.90;98.10;;;;;;5052928;28;20186;-81
2022/07/16 00:53:52;;;;;;;3.40;2.27;;;16.80;98.60;;;;;;5053116;28;20227;-80
2022/07/16 00:56:18;;;;;;;3.10;2.07;;;16.80;98.30;;;;;;5053640;28;20220;-80
2022/07/16 00:58:46;;;;;;;5.23;2.40;;;16.90;98.10;;;;;;5052963;28;20603;-81
2022/07/16 01:01:12;;;;;;;3.53;1.97;;;16.90;98.20;;;;;;5052969;28;20169;-80
2022/07/16 01:03:39;;;;;;;9.27;2.53;;;16.80;98.50;;;;;;5052641;28;20276;-81
2022/07/16 01:06:06;;;;;;;7.87;2.83;;;16.90;98.10;;;;;;5053568;28;20260;-80
2022/07/16 01:08:38;;;;;;;4.43;2.30;;;16.80;98.40;;;;;;5053470;28;20179;-80
2022/07/16 01:11:07;;;;;;;6.70;2.40;;;16.80;98.30;;;;;;5052812;28;20212;-81
2022/07/16 01:13:34;;;;;;;3.13;2.40;;;16.80;98.10;;;;;;5052644;28;20196;-80
2022/07/16 01:16:00;;;;;;;4.57;2.67;;;16.80;98.60;;;;;;5052990;28;20181;-81
2022/07/16 01:18:26;;;;;;;4.17;2.23;;;16.80;98.40;;;;;;5052423;28;20204;-80
2022/07/16 01:20:51;;;;;;;4.50;2.27;;;16.70;98.40;;;;;;5053056;28;20207;-80
2022/07/16 01:23:22;;;;;;;5.30;2.50;;;16.70;98.40;;;;;;5052527;28;20276;-80
2022/07/16 01:25:48;;;;;;;5.23;2.33;;;16.80;98.30;;;;;;5053094;28;20234;-80
2022/07/16 01:28:14;;;;;;;3.87;2.30;;;16.80;98.40;;;;;;5052608;28;20557;-80
2022/07/16 01:30:40;;;;;;;5.23;2.43;;;16.70;98.60;;;;;;5053255;28;20588;-80
2022/07/16 01:33:29;;;;;;;5.43;2.30;;;16.80;98.50;;;;;;5052493;28;20193;-79
2022/07/16 01:36:11;;;;;;;5.53;2.20;;;16.80;98.40;;;;;;5053236;28;20174;-80
2022/07/16 01:38:39;;;;;;;3.83;2.53;;;16.80;98.40;;;;;;5053617;28;20197;-81
2022/07/16 01:41:05;;;;;;;9.60;2.60;;;16.70;98.50;;;;;;5053205;28;20166;-82
2022/07/16 01:43:34;;;;;;;3.80;2.40;;;16.80;98.30;;;;;;5053655;28;20220;-81
2022/07/16 01:46:00;;;;;;;6.53;2.30;;;16.80;98.50;;;;;;5054101;28;20169;-80
2022/07/16 01:48:26;;;;;;;7.00;2.63;;;16.80;98.30;;;;;;5053578;28;20310;-81
2022/07/16 01:50:53;;;;;;;5.93;2.20;;;16.80;98.40;;;;;;5053411;28;20177;-82
2022/07/16 01:53:19;;;;;;;3.63;2.33;;;16.80;98.30;;;;;;5053599;28;20204;-80
2022/07/16 01:55:45;;;;;;;4.60;2.63;;;16.90;98.30;;;;;;5053746;28;20635;-80
2022/07/16 01:58:13;;;;;;;6.23;2.60;;;16.80;98.40;;;;;;5053743;28;20216;-80
2022/07/16 02:00:41;;;;;;;3.63;2.27;;;16.80;98.10;;;;;;5055611;28;20181;-81
2022/07/16 02:03:07;;;;;;;4.07;2.50;;;16.80;98.20;;;;;;5056119;28;20189;-81
2022/07/16 02:05:34;;;;;;;4.17;2.17;;;16.70;98.10;;;;;;5056723;28;20553;-79
2022/07/16 02:07:59;;;;;;;3.57;2.40;;;16.70;98.20;;;;;;5056274;28;20169;-80
2022/07/16 02:10:25;;;;;;;3.50;2.20;;;16.70;98.20;;;;;;5056716;28;20184;-81
2022/07/16 02:12:51;;;;;;;5.13;2.60;;;16.60;98.20;;;;;;5057786;28;20649;-80
2022/07/16 02:15:16;;;;;;;4.83;2.50;;;16.70;98.40;;;;;;5056159;28;20272;-80
2022/07/16 02:17:42;;;;;;;4.97;2.57;;;16.70;98.40;;;;;;5056251;28;20320;-81
2022/07/16 02:20:10;;;;;;;6.60;2.50;;;16.70;98.60;;;;;;5056948;28;20515;-81
2022/07/16 02:22:37;;;;;;;4.27;2.20;;;16.70;98.40;;;;;;5056710;28;20185;-81
2022/07/16 02:25:04;;;;;;;6.13;2.30;;;16.70;98.50;;;;;;5057155;28;20689;-80
2022/07/16 02:27:30;;;;;;;3.87;2.17;;;16.70;98.50;;;;;;5057675;28;20238;-81
2022/07/16 02:29:56;;;;;;;2.73;1.90;;;16.70;98.40;;;;;;5056874;28;20196;-81
2022/07/16 02:32:21;;;;;;;3.10;2.20;;;16.70;98.40;;;;;;5057140;28;20204;-80
2022/07/16 02:34:48;;;;;;;6.43;2.10;;;16.60;98.60;;;;;;5056990;28;20203;-81
2022/07/16 02:37:14;;;;;;;5.17;2.13;;;16.60;98.70;;;;;;5056306;28;20173;-80
2022/07/16 02:39:40;;;;;;;4.10;2.03;;;16.60;98.50;;;;;;5055921;28;20227;-80
2022/07/16 02:42:05;;;;;;;2.37;2.07;;;16.60;98.40;;;;;;5057222;28;20165;-80
2022/07/16 02:44:31;;;;;;;6.27;1.90;;;16.60;98.50;;;;;;5056231;28;20213;-79
2022/07/16 02:46:57;;;;;;;4.13;2.17;;;16.60;98.50;;;;;;5056160;28;20207;-80
2022/07/16 02:49:23;;;;;;;7.10;2.10;;;16.60;98.40;;;;;;5056166;28;20178;-80
2022/07/16 02:51:48;;;;;;;4.93;2.30;;;16.60;98.50;;;;;;5056083;28;20633;-80
2022/07/16 02:54:14;;;;;;;6.07;2.33;;;16.60;98.70;;;;;;5055747;28;20193;-80
2022/07/16 02:56:40;;;;;;;9.00;2.40;;;16.60;98.60;;;;;;5055619;28;20177;-80
2022/07/16 02:59:05;;;;;;;7.23;2.10;;;16.60;98.80;;;;;;5056138;28;20273;-80
2022/07/16 03:01:31;;;;;;;4.07;2.13;;;16.70;98.30;;;;;;5056719;28;20166;-80
2022/07/16 03:03:57;;;;;;;7.90;2.20;;;16.70;98.40;;;;;;5056357;28;20191;-80
2022/07/16 03:06:22;;;;;;;3.10;2.20;;;16.60;98.70;;;;;;5055672;28;20702;-80
2022/07/16 03:08:48;;;;;;;5.80;2.20;;;16.70;98.60;;;;;;5056604;28;20211;-79
2022/07/16 03:11:15;;;;;;;5.60;2.30;;;16.70;98.60;;;;;;5056065;28;20173;-79
2022/07/16 03:13:41;;;;;;;4.17;2.60;;;16.70;98.40;;;;;;5054801;28;20262;-80
2022/07/16 03:16:07;;;;;;;3.57;2.10;;;16.70;98.50;;;;;;5054566;28;20181;-80
2022/07/16 03:18:32;;;;;;;7.73;2.53;;;16.70;98.60;;;;;;5054345;28;20230;-80
2022/07/16 03:20:58;;;;;;;3.47;2.40;;;16.60;98.60;;;;;;5054633;28;20176;-80
2022/07/16 03:23:24;;;;;;;3.17;2.30;;;16.60;98.90;;;;;;5054344;28;20772;-80
2022/07/16 03:25:49;;;;;;;2.60;2.20;;;16.60;98.90;;;;;;5055152;28;20169;-81
2022/07/16 03:28:15;;;;;;;16.20;2.70;;;16.60;98.90;;;;;;5055616;28;20232;-80
2022/07/16 03:30:41;;;;;;;4.53;2.40;;;16.60;98.80;;;;;;5055812;28;20208;-81
2022/07/16 03:33:06;;;;;;;6.87;2.40;;;16.60;99.10;;;;;;5055135;28;20194;-79
2022/07/16 03:35:32;;;;;;;4.53;2.53;;;16.50;99.20;;;;;;5055332;28;20181;-80
2022/07/16 03:40:42;;;;;;;6.77;2.60;;;16.50;99.30;;;;;;5057678;28;20173;-80
2022/07/16 03:43:08;;;;;;;5.67;2.40;;;16.60;99.20;;;;;;5055800;28;20193;-81
2022/07/16 03:45:34;;;;;;;6.53;2.73;;;16.60;99.30;;;;;;5056194;28;20573;-81
2022/07/16 03:47:59;;;;;;;7.73;2.90;;;16.50;99.50;;;;;;5055698;28;20285;-81
2022/07/16 03:50:25;;;;;;;4.30;2.67;;;16.60;99.20;;;;;;5056054;28;20542;-80
2022/07/16 03:52:51;;;;;;;6.07;3.00;;;16.50;99.40;;;;;;5055219;28;20170;-80
2022/07/16 03:55:17;;;;;;;8.13;2.50;;;16.70;99.40;;;;;;5055584;28;20241;-81
2022/07/16 03:57:43;;;;;;;4.00;2.30;;;16.60;99.40;;;;;;5055661;28;20242;-81
2022/07/16 04:00:10;;;;;;;5.90;2.50;;;16.50;99.60;;;;;;5056208;28;20184;-80
2022/07/16 04:02:35;;;;;;;5.20;2.50;;;16.50;99.50;;;;;;5055822;28;20523;-81
2022/07/16 04:05:02;;;;;;;3.40;2.40;;;16.60;99.40;;;;;;5056734;28;20205;-80
2022/07/16 04:07:28;;;;;;;5.60;2.33;;;16.60;99.20;;;;;;5056082;28;20179;-81
2022/07/16 04:09:57;;;;;;;10.87;2.20;;;16.70;99.10;;;;;;5056368;28;20183;-80
2022/07/16 04:12:23;;;;;;;6.23;2.50;;;16.70;99.20;;;;;;5056866;28;20729;-81
2022/07/16 04:14:53;;;;;;;4.00;2.73;;;16.70;98.80;;;;;;5057101;28;20558;-80
2022/07/16 04:17:19;;;;;;;3.27;2.93;;;16.80;98.80;;;;;;5056627;28;20658;-81
2022/07/16 04:19:44;;;;;;;2.83;2.20;;;16.80;98.80;;;;;;5056517;28;20201;-81
2022/07/16 04:22:10;;;;;;;4.37;2.30;;;16.80;98.70;;;;;;5056412;28;20231;-82
2022/07/16 04:24:36;;;;;;;6.50;2.33;;;16.90;98.70;;;;;;5056298;28;20213;-81
2022/07/16 04:27:01;;;;;;;4.40;2.37;;;16.90;98.60;;;;;;5056575;28;20176;-80
2022/07/16 04:29:27;;;;;;;6.33;2.60;;;16.90;98.80;;;;;;5057694;28;20173;-81
2022/07/16 04:31:53;;;;;;;4.57;2.80;;;17.00;99.00;;;;;;5057986;28;20184;-81
2022/07/16 04:34:18;;;;;;;6.17;2.77;;;17.00;99.10;;;;;;5058376;28;20673;-80
2022/07/16 04:36:44;;;;;;;5.07;3.30;;;17.00;99.40;;;;;;5060240;28;20177;-80
2022/07/16 04:39:10;;;;;;;3.20;2.43;;;17.00;99.60;;;;;;5061145;28;20235;-81
2022/07/16 04:41:36;;;;;;;4.47;3.10;;;16.90;99.70;;;;;;5060150;28;20174;-80
2022/07/16 04:44:02;;;;;;;4.53;2.53;;;17.00;99.90;;;;;;5054616;28;20193;-80
2022/07/16 04:46:27;;;;;;;6.83;2.80;;;17.00;99.90;;;;;;5054251;28;20238;-80
2022/07/16 04:48:53;;;;;;;5.80;2.73;;;17.00;99.90;;;;;;5053524;28;20181;-81
2022/07/16 04:51:19;;;;;;;3.77;2.73;;;17.00;99.90;;;;;;5053294;28;20169;-81
2022/07/16 04:53:44;;;;;;;5.00;2.60;;;16.80;99.90;;;;;;5053846;28;20194;-80
2022/07/16 04:56:10;;;;;;;8.70;3.00;;;16.70;99.90;;;;;;5053818;28;20177;-80
2022/07/16 04:58:36;;;;;;;4.97;2.90;;;16.50;99.90;;;;;;5053051;28;20197;-81
2022/07/16 05:01:01;;;;;;;3.57;2.67;;;16.20;99.90;;;;;;5054755;28;20165;-83
2022/07/16 05:03:27;;;;;;;6.33;3.10;;;16.10;99.90;;;;;;5053652;28;20289;-80
2022/07/16 05:05:53;;;;;;;5.47;3.43;;;15.90;99.90;;;;;;5053154;28;20264;-80
2022/07/16 05:08:19;;;;;;;4.53;3.20;;;15.70;99.90;;;;;;5052817;28;20173;-81
2022/07/16 05:10:45;;;;;;;6.83;3.20;;;15.70;99.90;;;;;;5052881;28;20191;-82
2022/07/16 05:13:10;;;;;;;5.70;3.47;;;15.50;99.90;;;;;;5052862;28;20193;-80
2022/07/16 05:15:37;;;;;;;10.00;4.10;;;15.40;99.90;;;;;;5053646;28;20708;-81
2022/07/16 05:18:03;;;;;;;6.50;3.50;;;15.30;99.90;;;;;;5053009;28;20181;-81
2022/07/16 05:20:29;;;;;;;9.63;4.60;;;15.20;99.90;;;;;;5053393;28;20169;-81
2022/07/16 05:22:55;;;;;;;9.83;4.77;;;15.30;99.90;;;;;;5052780;28;20645;-80
2022/07/16 05:25:22;;;;;;;6.70;4.30;;;15.30;99.90;;;;;;5053577;28;20169;-81
2022/07/16 05:27:47;;;;;;;7.47;4.87;;;15.40;99.90;;;;;;5054322;28;20645;-81
2022/07/16 05:30:14;;;;;;;7.93;4.87;;;15.40;99.90;;;;;;5052960;28;20181;-81
2022/07/16 05:32:41;;;;;;;9.70;5.00;;;15.40;99.90;;;;;;5053060;28;20180;-80
2022/07/16 05:35:08;;;;;;;9.37;5.07;;;15.50;99.90;;;;;;5053146;28;20213;-81
2022/07/16 05:37:33;;;;;;;9.67;5.00;;;15.60;99.90;;;;;;5052875;28;20247;-82
2022/07/16 05:39:59;;;;;;;9.40;5.10;;;15.80;99.90;;;;;;5053084;28;20657;-81
2022/07/16 05:42:25;;;;;;;7.27;4.77;;;15.80;99.90;;;;;;5053203;28;20177;-81
2022/07/16 05:44:50;;;;;;;6.03;4.57;;;15.90;99.90;;;;;;5052988;28;20201;-82
2022/07/16 05:47:16;;;;;;;9.27;4.33;;;16.00;99.90;;;;;;5053055;28;20231;-80
2022/07/16 05:49:41;;;;;;;8.27;4.80;;;16.00;99.90;;;;;;5053508;28;20692;-81
2022/07/16 05:52:07;;;;;;;5.27;4.43;;;16.10;99.90;;;;;;5052422;28;20550;-80
2022/07/16 05:54:33;;;;;;;10.83;5.13;;;16.30;99.90;;;;;;5053120;28;20308;-81
2022/07/16 05:56:58;;;;;;;5.50;4.20;;;16.40;99.90;;;;;;5053179;28;20264;-81
2022/07/16 05:59:24;;;;;;;5.07;4.17;;;16.50;99.90;;;;;;5053064;28;20798;-81
2022/07/16 06:01:50;;;;;;;5.57;3.80;;;16.70;99.90;;;;;;5054377;28;20542;-81
2022/07/16 06:04:15;;;;;;;5.30;3.43;;;17.00;99.90;;;;;;5055629;28;20661;-80
2022/07/16 06:06:41;;;;;;;4.80;3.00;;;17.30;99.90;;;;;;5053164;28;20169;-82
2022/07/16 06:09:07;;;;;;;4.50;2.97;;;17.50;99.90;;;;;;5050834;28;20181;-79
2022/07/16 06:11:32;;;;;;;4.60;2.97;;;17.70;99.90;;;;;;5050375;28;20821;-81
2022/07/16 06:13:58;;;;;;;9.35;3.15;;;18.40;99.90;;;;;;5050913;28;20189;-82
2022/07/16 06:16:24;;;;;;;5.18;2.53;;;18.30;99.90;;;;;;5052003;28;20189;-82
2022/07/16 06:18:49;;;;;;;5.43;2.67;;;18.60;99.90;;;;;;5050665;28;20206;-82
2022/07/16 06:21:15;;;;;;;4.10;2.63;;;18.90;99.90;;;;;;5050426;28;20176;-81
2022/07/16 06:23:41;;;;;;;2.63;2.00;;;19.00;99.90;;;;;;5050479;28;20224;-80
2022/07/16 06:26:06;;;;;;;3.47;2.25;;;19.00;99.90;;;;;;5050581;28;20215;-80
2022/07/16 06:28:32;;;;;;;2.75;2.50;;;19.30;99.90;;;;;;5051224;28;20177;-79
2022/07/16 06:30:58;;;;;;;4.38;2.20;;;19.60;99.90;;;;;;5051284;28;20208;-80
2022/07/16 06:33:23;;;;;;;2.55;2.30;;;19.60;99.90;;;;;;5051149;28;20197;-80
2022/07/16 06:35:49;;;;;;;3.08;1.95;;;19.70;99.90;;;;;;5050147;28;20228;-82
2022/07/16 06:38:15;;;;;;;4.03;2.00;;;19.40;99.90;;;;;;5050807;28;20205;-79
2022/07/16 06:40:44;;;;;;;2.92;2.10;;;19.50;99.90;;;;;;5049988;28;20205;-82
2022/07/16 06:43:11;;;;;;;3.97;1.90;;;19.80;99.90;;;;;;5050437;28;20189;-82
2022/07/16 06:45:37;;;;;;;2.45;2.00;;;20.10;99.90;;;;;;5052901;28;20505;-80
2022/07/16 06:48:03;;;;;;;6.13;1.83;;;20.50;99.90;;;;;;5055407;28;20263;-80
2022/07/16 06:50:29;;;;;;;4.97;2.00;;;20.40;99.90;;;;;;5056587;28;20708;-81
2022/07/16 06:52:54;;;;;;;3.25;1.80;;;19.90;99.90;;;;;;5054387;28;20169;-80
2022/07/16 06:55:20;;;;;;;5.00;1.80;;;19.60;99.90;;;;;;5054785;28;20223;-79
2022/07/16 06:57:45;;;;;;;4.68;2.00;;;19.00;99.90;;;;;;5054690;28;20170;-78
2022/07/16 07:00:12;;;;;;;4.30;1.80;;;18.90;99.90;;;;;;5054667;28;20200;-79
2022/07/16 07:02:38;;;;;;;8.23;2.35;;;18.60;99.90;;;;;;5056045;28;20236;-79
2022/07/16 07:05:05;;;;;;;3.50;1.60;;;18.20;99.90;;;;;;5054878;28;20197;-80
2022/07/16 07:07:31;;;;;;;7.05;1.80;;;18.60;99.90;;;;;;5054770;28;20180;-80
2022/07/16 07:09:56;;;;;;;3.28;1.50;;;18.70;99.90;;;;;;5055419;28;20173;-80
2022/07/16 07:12:22;;;;;;;3.33;1.58;;;19.60;99.90;;;;;;5057281;28;20247;-81
2022/07/16 07:14:48;;;;;;;3.78;1.38;;;20.10;99.90;;;;;;5057168;28;20518;-81
2022/07/16 07:17:13;;;;;;;2.40;1.40;;;20.70;99.90;;;;;;5057851;28;20204;-80
2022/07/16 07:19:39;;;;;;;4.22;1.85;;;20.90;99.90;;;;;;5057305;28;20601;-81
2022/07/16 07:22:04;;;;;;;2.75;1.40;;;21.10;99.90;;;;;;5058333;28;20173;-81
2022/07/16 07:24:30;;;;;;;2.28;1.40;;;21.30;99.90;;;;;;5056575;28;20548;-81
2022/07/16 07:26:59;;;;;;;3.63;1.30;;;21.50;99.90;;;;;;5055667;28;20265;-79
2022/07/16 07:29:24;;;;;;;2.50;1.40;;;21.60;99.90;;;;;;5056937;28;20691;-80
2022/07/16 07:31:50;;;;;;;5.22;1.40;;;21.90;99.90;;;;;;5057595;28;20177;-81
2022/07/16 07:34:16;;;;;;;5.40;1.50;;;22.20;99.90;;;;;;5057958;28;20760;-80
2022/07/16 07:36:41;;;;;;;3.15;1.70;;;22.40;99.90;;;;;;5057974;28;20177;-79
2022/07/16 07:39:07;;;;;;;4.18;1.40;;;22.50;99.40;;;;;;5057632;28;20216;-81
2022/07/16 07:41:33;;;;;;;2.78;1.30;;;22.80;98.30;;;;;;5058067;28;20177;-78
2022/07/16 07:43:59;;;;;;;3.40;1.63;;;21.70;98.20;;;;;;5055031;28;20197;-79
2022/07/16 07:46:27;;;;;;;4.13;1.60;;;21.30;99.90;;;;;;5053659;28;20154;-77
2022/07/16 07:48:53;;;;;;;3.60;1.30;;;22.00;98.40;;;;;;5054299;28;20184;-79
2022/07/16 07:51:19;;;;;;;3.22;1.30;;;22.60;97.40;;;;;;5054521;28;20553;-80
2022/07/16 07:53:44;;;;;;;2.40;1.17;;;22.60;96.70;;;;;;5054501;28;20567;-80
2022/07/16 07:56:10;;;;;;;2.90;1.33;;;22.70;96.90;;;;;;5054017;28;20645;-81
2022/07/16 07:58:37;;;;;;;6.97;1.90;;;22.90;96.00;;;;;;5052405;28;20205;-79
2022/07/16 08:01:03;;;;;;;3.80;1.65;;;23.10;95.70;;;;;;5054004;28;20268;-78
2022/07/16 08:03:29;;;;;;;2.88;1.40;;;22.40;95.20;;;;;;5052359;28;20280;-79
2022/07/16 08:05:54;;;;;;;3.35;1.40;;;22.80;95.70;;;;;;5052603;28;20630;-78
2022/07/16 08:08:20;;;;;;;5.80;1.40;;;22.70;95.30;;;;;;5053452;28;20223;-79
2022/07/16 08:10:46;;;;;;;2.53;1.42;;;21.70;95.60;;;;;;5053282;28;20642;-78
2022/07/16 08:13:11;;;;;;;6.38;1.30;;;21.40;96.10;;;;;;5052188;28;20658;-79
2022/07/16 08:15:37;;;;;;;4.28;1.70;;;21.30;96.70;;;;;;5052121;28;20176;-80
2022/07/16 08:18:03;;;;;;;4.82;1.48;;;21.10;97.00;;;;;;5052366;28;20181;-79
2022/07/16 08:20:28;;;;;;;2.53;1.30;;;21.40;96.10;;;;;;5052357;28;20577;-77
2022/07/16 08:22:54;;;;;;;3.28;1.27;;;21.40;96.00;;;;;;5052858;28;20264;-77
2022/07/16 08:28:04;;;;;;;2.67;1.35;;;20.80;96.40;;;;;;5052798;28;20272;-79
2022/07/16 08:30:30;;;;;;;7.28;1.67;;;20.60;96.90;;;;;;5051650;28;20256;-79
2022/07/16 08:32:55;;;;;;;4.53;1.50;;;21.80;97.20;;;;;;5051436;28;20180;-79
2022/07/16 08:35:21;;;;;;;7.63;1.33;;;22.50;94.80;;;;;;5051298;28;20162;-78
2022/07/16 08:37:47;;;;;;;3.22;1.25;;;23.00;94.10;;;;;;5051202;28;20573;-78
2022/07/16 08:40:16;;;;;;;2.92;1.20;;;23.30;93.80;;;;;;5051182;28;20197;-80
2022/07/16 08:42:43;;;;;;;3.42;1.45;;;23.60;92.90;;;;;;5053295;28;20173;-80
2022/07/16 08:45:11;;;;;;;4.05;1.48;;;23.60;92.50;;;;;;5053889;28;20193;-79
2022/07/16 08:47:37;;;;;;;3.75;1.45;;;23.60;91.60;;;;;;5050335;28;20630;-79
2022/07/16 08:50:05;;;;;;;6.50;1.45;;;24.00;90.20;;;;;;5052800;28;20184;-80
2022/07/16 08:52:32;;;;;;;2.53;1.30;;;24.10;90.30;;;;;;5054316;28;20175;-81
2022/07/16 08:55:01;;;;;;;2.40;1.02;;;24.10;90.00;;;;;;5054168;28;20197;-80
2022/07/16 08:57:27;;;;;;;6.20;1.25;;;24.00;90.40;;;;;;5053900;28;20260;-79
2022/07/16 08:59:53;;;;;;;10.15;1.40;;;23.70;90.20;;;;;;5052094;28;20285;-78
2022/07/16 09:02:19;;;;;;;7.22;2.20;;;22.70;92.10;;;;;;5051609;28;20176;-80
2022/07/16 09:04:46;;;;;;;2.63;1.50;;;22.50;92.70;;;;;;5053993;28;20200;-80
2022/07/16 09:07:16;;;;;;;6.00;1.75;;;21.70;93.20;;;;;;5054688;28;20192;-80
2022/07/16 09:09:44;;;;;;;6.22;1.70;;;22.70;92.70;;;;;;5054320;28;20259;-80
2022/07/16 09:12:11;;;;;;;7.10;1.98;;;23.40;92.00;;;;;;5056424;28;20567;-80
2022/07/16 09:14:37;;;;;;;6.00;1.40;;;23.70;91.70;;;;;;5057361;28;20220;-80
2022/07/16 09:17:02;;;;;;;3.05;1.30;;;24.10;90.00;;;;;;5052840;28;20188;-80
2022/07/16 09:19:29;;;;;;;4.70;1.20;;;23.90;89.50;;;;;;5048626;28;20199;-80
2022/07/16 09:22:03;;;;;;;2.75;1.42;;;23.80;87.80;;;;;;5049193;28;20200;-80
2022/07/16 09:24:50;;;;;;;3.33;1.40;;;24.10;86.70;;;;;;5052034;28;20181;-80
2022/07/16 09:27:16;;;;;;;2.90;1.40;;;22.90;90.20;;;;;;5053564;28;20280;-79
2022/07/16 09:29:46;;;;;;;5.10;1.40;;;22.40;90.50;;;;;;5054551;28;20204;-80
2022/07/16 09:32:25;;;;;;;6.05;1.60;;;22.10;90.70;;;;;;5053589;28;20173;-79
2022/07/16 09:35:06;;;;;;;4.65;1.30;;;22.10;90.90;;;;;;5057130;28;20217;-80
2022/07/16 09:37:51;;;;;;;4.45;1.60;;;23.00;86.30;;;;;;5058984;28;20637;-80
2022/07/16 09:40:38;;;;;;;4.47;1.15;;;23.80;86.00;;;;;;5055671;28;20688;-79
2022/07/16 09:43:13;;;;;;;2.13;1.38;;;24.10;85.00;;;;;;5035160;28;20174;-81
2022/07/16 09:45:44;;;;;;;2.22;1.20;;;24.20;84.40;;;;;;5051085;28;20653;-81
2022/07/16 09:48:23;;;;;;;1.95;1.20;;;23.70;84.80;;;;;;5052352;28;20193;-81
2022/07/16 09:50:51;;;;;;;2.45;1.33;;;22.50;85.90;;;;;;5052262;28;20248;-81
2022/07/16 09:53:20;;;;;;;4.70;1.42;;;23.00;86.30;;;;;;5050787;28;20243;-80
2022/07/16 09:56:06;;;;;;;3.90;1.50;;;23.00;85.30;;;;;;5051668;28;20173;-80
2022/07/16 09:58:33;;;;;;;7.97;1.48;;;23.40;86.50;;;;;;5050540;28;20200;-80
2022/07/16 10:01:00;;;;;;;10.30;1.30;;;24.30;83.40;;;;;;5050645;28;20173;-80
2022/07/16 10:03:27;;;;;;;6.05;1.42;;;24.20;82.20;;;;;;5050590;28;20722;-81
2022/07/16 10:05:53;;;;;;;4.47;1.27;;;24.00;82.10;;;;;;5049925;28;20298;-80
2022/07/16 10:08:19;;;;;;;2.10;1.17;;;24.20;80.50;;;;;;5050044;28;20249;-80
2022/07/16 10:10:46;;;;;;;3.15;1.20;;;23.80;81.60;;;;;;5052074;28;20177;-79
2022/07/16 10:13:13;;;;;;;2.95;1.33;;;24.60;81.60;;;;;;5052047;28;20565;-79
2022/07/16 10:15:40;;;;;;;2.38;1.27;;;24.80;80.40;;;;;;5052235;28;20312;-79
2022/07/16 10:18:31;;;;;;;4.15;1.33;;;24.50;80.70;;;;;;5052224;28;20284;-79
2022/07/16 10:21:19;;;;;;;4.68;1.30;;;23.70;82.20;;;;;;5040493;28;20196;-79
2022/07/16 10:23:49;;;;;;;2.22;1.38;;;22.80;82.90;;;;;;5056437;28;20577;-79
2022/07/16 10:26:19;;;;;;;1.70;1.30;;;23.40;83.20;;;;;;5055904;28;20184;-79
2022/07/16 10:28:54;;;;;;;2.40;1.25;;;24.30;79.90;;;;;;5056382;28;20181;-80
2022/07/16 10:31:41;;;;;;;4.38;1.10;;;24.60;79.80;;;;;;5057530;28;20180;-79
2022/07/16 10:34:16;;;;;;;3.00;1.25;;;25.40;79.50;;;;;;5057459;28;20201;-80
2022/07/16 10:36:47;;;;;;;2.92;1.50;;;25.10;80.20;;;;;;5056045;28;20177;-79
2022/07/16 10:39:16;;;;;;;4.53;1.40;;;24.00;82.20;;;;;;5057470;28;20201;-79
2022/07/16 10:41:53;;;;;;;4.82;1.52;;;23.20;83.30;;;;;;5057069;28;20662;-79
2022/07/16 10:44:21;;;;;;;2.55;1.40;;;22.90;85.00;;;;;;5056205;28;20247;-80
2022/07/16 10:46:53;;;;;;;7.05;1.33;;;24.50;81.80;;;;;;5055922;28;20781;-79
2022/07/16 10:49:20;;;;;;;5.97;1.40;;;25.20;81.30;;;;;;5056423;28;20188;-80
2022/07/16 10:51:57;;;;;;;4.82;1.35;;;24.30;80.00;;;;;;5055772;28;20173;-80
2022/07/16 10:54:30;;;;;;;3.80;1.38;;;24.40;81.40;;;;;;5053976;28;20680;-77
2022/07/16 10:56:59;;;;;;;3.38;1.23;;;25.30;81.60;;;;;;5053427;28;20181;-78
2022/07/16 10:59:48;;;;;;;4.32;1.30;;;25.40;80.50;;;;;;5053533;28;20201;-77
2022/07/16 11:02:17;;;;;;;4.32;1.20;;;25.50;78.80;;;;;;5054142;28;20517;-78
2022/07/16 11:04:46;;;;;;;3.22;1.27;;;24.40;79.00;;;;;;5053511;28;20263;-77
2022/07/16 11:07:13;;;;;;;5.93;1.40;;;24.90;76.60;;;;;;5052978;28;20169;-77
2022/07/16 11:09:42;;;;;;;5.03;1.48;;;25.50;78.10;;;;;;5052561;28;20178;-77
2022/07/16 11:12:25;;;;;;;6.55;1.55;;;25.50;76.80;;;;;;5053008;28;20180;-78
2022/07/16 11:14:54;;;;;;;8.85;1.30;;;24.10;78.10;;;;;;5053297;28;20224;-77
2022/07/16 11:17:26;;;;;;;3.95;1.10;;;24.00;79.00;;;;;;5053005;28;20275;-77
2022/07/16 11:19:55;;;;;;;3.95;1.63;;;24.40;78.10;;;;;;5053138;28;20209;-77
2022/07/16 11:22:23;;;;;;;7.40;1.50;;;24.70;77.50;;;;;;5052778;28;20165;-78
2022/07/16 11:24:54;;;;;;;4.40;1.80;;;24.80;76.50;;;;;;5052853;28;20228;-79
2022/07/16 11:27:37;;;;;;;6.50;1.63;;;25.00;76.30;;;;;;5053155;28;20530;-77
2022/07/16 11:30:09;;;;;;;5.22;1.77;;;25.60;75.80;;;;;;5054358;28;20245;-77
2022/07/16 11:32:46;;;;;;;3.42;1.52;;;25.60;73.90;;;;;;5052859;28;20615;-78
2022/07/16 11:35:12;;;;;;;2.67;1.20;;;24.90;75.50;;;;;;5053005;28;20634;-78
2022/07/16 11:37:51;;;;;;;7.93;2.95;;;24.70;74.30;;;;;;5052785;28;20184;-80
2022/07/16 11:40:17;;;;;;;6.90;1.60;;;24.00;77.70;;;;;;5053006;28;20193;-79
2022/07/16 11:42:42;;;;;;;6.93;1.70;;;25.10;75.80;;;;;;5052504;28;20184;-78
2022/07/16 11:45:10;;;;;;;7.25;1.10;;;24.90;75.30;;;;;;5052926;28;20193;-79
2022/07/16 11:47:36;;;;;;;4.53;2.38;;;24.60;73.90;;;;;;5052164;28;20227;-79
2022/07/16 11:50:01;;;;;;;3.08;1.13;;;24.70;74.70;;;;;;5053295;28;20185;-78
2022/07/16 11:52:27;;;;;;;3.67;1.30;;;25.20;73.60;;;;;;5052388;28;20260;-78
2022/07/16 11:54:57;;;;;;;3.47;1.20;;;25.20;75.00;;;;;;5052443;28;20288;-79
2022/07/16 11:57:23;;;;;;;5.10;1.35;;;25.10;74.40;;;;;;5052912;28;20612;-79
2022/07/16 11:59:54;;;;;;;1.67;1.10;;;25.50;73.90;;;;;;5052910;28;20224;-78
2022/07/16 12:02:23;;;;;;;5.30;1.20;;;25.50;72.50;;;;;;5052829;28;20204;-79
2022/07/16 12:04:55;;;;;;;4.15;1.20;;;25.90;72.10;;;;;;5054008;28;20188;-79
2022/07/16 12:07:23;;;;;;;3.65;1.30;;;25.10;72.70;;;;;;5054596;28;20273;-79
2022/07/16 12:09:50;;;;;;;2.10;1.15;;;25.20;75.10;;;;;;5054439;28;20736;-80
2022/07/16 12:12:19;;;;;;;1.58;1.00;;;25.30;72.60;;;;;;5054726;28;20181;-79
2022/07/16 12:14:53;;;;;;;4.05;1.10;;;24.60;73.00;;;;;;5054500;28;20239;-80
2022/07/16 12:17:25;;;;;;;2.90;1.10;;;25.00;73.70;;;;;;5057962;28;20271;-78
2022/07/16 12:20:10;;;;;;;5.15;1.85;;;25.10;72.20;;;;;;5057083;28;20208;-81
2022/07/16 12:22:45;;;;;;;3.22;0.90;;;23.90;71.70;;;;;;5057771;28;20642;-80
2022/07/16 12:25:27;;;;;;;14.30;1.73;;;23.80;72.80;;;;;;5054138;28;20173;-79
2022/07/16 12:27:56;;;;;;;3.33;1.17;;;24.00;74.00;;;;;;5054554;28;20165;-79
2022/07/16 12:30:33;;;;;;;2.95;1.42;;;24.20;74.20;;;;;;5055991;28;20730;-80
2022/07/16 12:33:00;;;;;;;2.67;1.00;;;24.20;73.50;;;;;;5054938;28;20188;-81
2022/07/16 12:36:04;;;;;;;13.60;2.00;;;24.00;73.70;;;;;;5055304;28;20577;-79
2022/07/16 12:38:54;;;;;;;2.90;1.00;;;24.40;75.20;;;;;;5049428;28;20200;-81
2022/07/16 12:41:24;;;;;;;5.72;1.15;;;23.80;74.80;;;;;;5054795;28;20649;-80
2022/07/16 12:43:53;;;;;;;6.72;1.42;;;23.70;75.80;;;;;;5052880;28;20193;-79
2022/07/16 12:46:25;;;;;;;4.13;0.95;;;23.80;74.50;;;;;;5055272;28;20195;-80
2022/07/16 12:49:10;;;;;;;4.65;1.25;;;24.20;73.50;;;;;;5054703;28;20185;-79
2022/07/16 12:51:40;;;;;;;4.22;1.40;;;24.10;74.80;;;;;;5054552;28;20180;-78
2022/07/16 12:54:07;;;;;;;6.85;1.33;;;24.20;73.10;;;;;;5056052;28;20193;-79
2022/07/16 12:59:19;;;;;;;3.58;1.05;;;23.40;73.60;;;;;;5063536;28;20208;-79